createdAt,value
2022-07-31T00:00:53.909Z,20.27
2022-07-31T00:03:22.420Z,20.26
2022-07-31T00:05:50.891Z,20.25
2022-07-31T00:08:19.362Z,20.22
2022-07-31T00:10:47.863Z,20.19
2022-07-31T00:13:16.333Z,20.17
2022-07-31T00:15:44.817Z,20.17
2022-07-31T00:18:14.851Z,20.15
2022-07-31T00:20:44.492Z,20.13
2022-07-31T00:23:13.259Z,20.08
2022-07-31T00:25:47.644Z,20.06
2022-07-31T00:28:16.123Z,20.02
2022-07-31T00:30:44.560Z,19.98
2022-07-31T00:33:16.097Z,19.93
2022-07-31T00:35:44.759Z,19.93
2022-07-31T00:38:28.596Z,19.89
2022-07-31T00:40:58.413Z,19.89
2022-07-31T00:43:27.506Z,19.87
2022-07-31T00:45:59.539Z,19.84
2022-07-31T00:48:29.696Z,19.80
2022-07-31T00:50:58.236Z,19.78
2022-07-31T00:53:26.957Z,19.76
2022-07-31T00:55:57.472Z,19.75
2022-07-31T00:58:26.316Z,19.73
2022-07-31T01:00:55.008Z,19.69
2022-07-31T01:03:23.618Z,19.65
2022-07-31T01:05:53.511Z,19.61
2022-07-31T01:08:22.066Z,19.60
2022-07-31T01:10:57.392Z,19.60
2022-07-31T01:13:34.293Z,19.60
2022-07-31T01:16:04.769Z,19.59
2022-07-31T01:18:36.369Z,19.57
2022-07-31T01:21:10.385Z,19.57
2022-07-31T01:24:01.541Z,19.57
2022-07-31T01:26:55.109Z,19.54
2022-07-31T01:29:28.438Z,19.54
2022-07-31T01:32:04.082Z,19.53
2022-07-31T01:34:38.310Z,19.53
2022-07-31T01:37:15.317Z,19.51
2022-07-31T01:39:48.145Z,19.49
2022-07-31T01:42:20.060Z,19.45
2022-07-31T01:45:01.584Z,19.45
2022-07-31T01:47:35.891Z,19.43
2022-07-31T01:50:05.963Z,19.43
2022-07-31T01:52:35.712Z,19.44
2022-07-31T01:55:05.895Z,19.38
2022-07-31T01:57:37.550Z,19.35
2022-07-31T02:00:14.884Z,19.35
2022-07-31T02:03:01.624Z,19.37
2022-07-31T02:05:41.876Z,19.36
2022-07-31T02:08:12.444Z,19.34
2022-07-31T02:10:46.351Z,19.35
2022-07-31T02:13:17.943Z,19.34
2022-07-31T02:15:49.796Z,19.31
2022-07-31T02:18:23.477Z,19.32
2022-07-31T02:21:10.647Z,19.30
2022-07-31T02:23:39.350Z,19.31
2022-07-31T02:26:08.986Z,19.31
2022-07-31T02:28:39.463Z,19.34
2022-07-31T02:31:13.189Z,19.35
2022-07-31T02:33:47.217Z,19.37
2022-07-31T02:36:19.215Z,19.38
2022-07-31T02:38:48.769Z,19.39
2022-07-31T02:41:18.673Z,19.41
2022-07-31T02:43:48.799Z,19.40
2022-07-31T02:46:23.620Z,19.42
2022-07-31T02:48:54.154Z,19.44
2022-07-31T02:51:25.184Z,19.44
2022-07-31T02:53:55.906Z,19.44
2022-07-31T02:56:29.375Z,19.43
2022-07-31T02:58:57.908Z,19.44
2022-07-31T03:01:30.029Z,19.46
2022-07-31T03:03:58.539Z,19.51
2022-07-31T03:06:29.667Z,19.55
2022-07-31T03:08:58.562Z,19.53
2022-07-31T03:11:27.274Z,19.53
2022-07-31T03:13:59.236Z,19.58
2022-07-31T03:16:31.189Z,19.60
2022-07-31T03:19:03.329Z,19.64
2022-07-31T03:21:32.548Z,19.68
2022-07-31T03:24:02.034Z,19.70
2022-07-31T03:26:32.157Z,19.72
2022-07-31T03:29:02.746Z,19.73
2022-07-31T03:31:33.064Z,19.76
2022-07-31T03:34:01.627Z,19.78
2022-07-31T03:36:32.216Z,19.83
2022-07-31T03:39:00.709Z,19.85
2022-07-31T03:41:38.207Z,19.89
2022-07-31T03:44:07.276Z,19.94
2022-07-31T03:46:37.363Z,19.97
2022-07-31T03:49:06.849Z,20.00
2022-07-31T03:51:36.047Z,20.03
2022-07-31T03:54:05.133Z,20.06
2022-07-31T03:56:59.127Z,20.07
2022-07-31T03:59:29.853Z,20.09
2022-07-31T04:02:10.531Z,20.15
2022-07-31T04:04:49.328Z,20.19
2022-07-31T04:07:18.086Z,20.24
2022-07-31T04:09:46.631Z,20.28
2022-07-31T04:12:16.695Z,20.32
2022-07-31T04:14:45.593Z,20.36
2022-07-31T04:17:15.550Z,20.39
2022-07-31T04:19:44.135Z,20.43
2022-07-31T04:22:12.703Z,20.45
2022-07-31T04:24:41.294Z,20.47
2022-07-31T04:27:48.237Z,20.49
2022-07-31T04:30:18.123Z,20.50
2022-07-31T04:32:50.068Z,20.47
2022-07-31T04:35:23.396Z,20.48
2022-07-31T04:37:51.933Z,20.50
2022-07-31T04:40:23.139Z,20.54
2022-07-31T04:42:51.642Z,20.58
2022-07-31T04:45:20.137Z,20.62
2022-07-31T04:47:50.236Z,20.66
2022-07-31T04:50:18.956Z,20.72
2022-07-31T04:52:57.281Z,20.74
2022-07-31T04:55:27.496Z,20.76
2022-07-31T04:57:55.980Z,20.81
2022-07-31T05:00:25.023Z,20.85
2022-07-31T05:02:54.992Z,20.89
2022-07-31T05:05:24.886Z,20.93
2022-07-31T05:07:53.340Z,20.99
2022-07-31T05:10:44.155Z,21.06
2022-07-31T05:13:12.772Z,21.10
2022-07-31T05:15:44.790Z,21.15
2022-07-31T05:18:14.737Z,21.22
2022-07-31T05:21:19.511Z,21.29
2022-07-31T05:24:02.081Z,21.35
2022-07-31T05:26:47.298Z,21.41
2022-07-31T05:29:15.876Z,21.47
2022-07-31T05:31:59.596Z,21.55
2022-07-31T05:34:31.986Z,21.62
2022-07-31T05:37:02.325Z,21.66
2022-07-31T05:39:33.345Z,21.74
2022-07-31T05:42:20.223Z,21.82
2022-07-31T05:45:01.188Z,21.88
2022-07-31T05:47:40.055Z,21.95
2022-07-31T05:50:11.272Z,22.00
2022-07-31T05:52:40.044Z,22.05
2022-07-31T05:55:27.029Z,22.11
2022-07-31T05:58:35.144Z,22.19
2022-07-31T06:01:05.077Z,22.26
2022-07-31T06:03:38.604Z,22.32
2022-07-31T06:06:28.748Z,22.39
2022-07-31T06:09:03.421Z,22.47
2022-07-31T06:11:36.984Z,22.52
2022-07-31T06:14:05.593Z,22.58
2022-07-31T06:16:53.281Z,22.67
2022-07-31T06:19:24.582Z,22.76
2022-07-31T06:21:55.918Z,22.82
2022-07-31T06:24:26.008Z,22.85
2022-07-31T06:26:58.368Z,22.86
2022-07-31T06:29:41.255Z,22.89
2022-07-31T06:32:11.210Z,22.88
2022-07-31T06:34:40.243Z,22.86
2022-07-31T06:37:10.389Z,22.84
2022-07-31T06:39:55.277Z,22.87
2022-07-31T06:42:48.886Z,22.87
2022-07-31T06:45:51.193Z,22.84
2022-07-31T06:48:50.341Z,22.81
2022-07-31T06:51:31.613Z,22.80
2022-07-31T06:54:03.020Z,22.79
2022-07-31T06:56:32.256Z,22.76
2022-07-31T06:59:01.186Z,22.72
2022-07-31T07:01:30.098Z,22.64
2022-07-31T07:03:59.538Z,22.63
2022-07-31T07:06:28.231Z,22.60
2022-07-31T07:08:57.685Z,22.61
2022-07-31T07:11:28.725Z,22.64
2022-07-31T07:13:57.204Z,22.69
2022-07-31T07:16:25.756Z,22.75
2022-07-31T07:18:54.293Z,22.82
2022-07-31T07:21:25.072Z,22.87
2022-07-31T07:23:55.092Z,22.96
2022-07-31T07:29:16.313Z,23.19
2022-07-31T07:31:44.927Z,23.28
2022-07-31T07:34:14.095Z,23.37
2022-07-31T07:36:43.151Z,23.46
2022-07-31T07:39:22.944Z,23.56
2022-07-31T07:41:54.229Z,23.63
2022-07-31T07:44:22.752Z,23.69
2022-07-31T07:46:51.263Z,23.80
2022-07-31T07:49:21.917Z,23.91
2022-07-31T07:52:10.155Z,24.02
2022-07-31T07:54:43.370Z,24.13
2022-07-31T07:57:33.991Z,24.21
2022-07-31T08:00:21.199Z,24.25
2022-07-31T08:03:02.924Z,24.28
2022-07-31T08:05:46.155Z,24.32
2022-07-31T08:08:15.283Z,24.34
2022-07-31T08:10:49.637Z,24.31
2022-07-31T08:13:38.825Z,24.29
2022-07-31T08:16:12.216Z,24.31
2022-07-31T08:18:46.318Z,24.33
2022-07-31T08:21:14.880Z,24.35
2022-07-31T08:23:43.504Z,24.36
2022-07-31T08:26:13.188Z,24.40
2022-07-31T08:28:50.651Z,24.43
2022-07-31T08:31:23.561Z,24.46
2022-07-31T08:34:13.155Z,24.53
2022-07-31T08:37:57.591Z,24.60
2022-07-31T08:39:51.930Z,24.64
2022-07-31T08:42:20.469Z,24.73
2022-07-31T08:44:50.405Z,24.82
2022-07-31T08:47:27.051Z,24.90
2022-07-31T08:49:58.302Z,24.98
2022-07-31T08:52:28.679Z,25.03
2022-07-31T08:55:09.404Z,25.10
2022-07-31T08:57:39.883Z,25.15
2022-07-31T09:00:13.142Z,25.09
2022-07-31T09:02:42.208Z,25.14
2022-07-31T09:05:42.190Z,25.16
2022-07-31T09:08:15.009Z,25.15
2022-07-31T09:10:49.874Z,25.17
2022-07-31T09:13:20.368Z,25.33
2022-07-31T09:15:58.436Z,25.53
2022-07-31T09:18:27.005Z,25.78
2022-07-31T09:24:07.919Z,26.32
2022-07-31T09:26:37.485Z,26.83
2022-07-31T09:29:08.706Z,26.91
2022-07-31T09:31:39.428Z,27.32
2022-07-31T09:34:39.830Z,27.88
2022-07-31T09:37:15.328Z,28.24
2022-07-31T09:40:02.536Z,28.59
2022-07-31T09:42:55.613Z,29.20
2022-07-31T09:45:30.563Z,29.72
2022-07-31T09:48:15.159Z,30.03
2022-07-31T09:50:55.744Z,30.01
2022-07-31T09:53:25.570Z,29.95
2022-07-31T09:56:04.461Z,29.70
2022-07-31T09:58:32.944Z,29.56
2022-07-31T10:01:05.302Z,29.54
2022-07-31T10:03:38.005Z,29.31
2022-07-31T10:06:08.017Z,28.98
2022-07-31T10:08:38.252Z,28.60
2022-07-31T10:11:43.287Z,28.37
2022-07-31T10:14:23.741Z,28.10
2022-07-31T10:16:56.345Z,27.67
2022-07-31T10:19:46.828Z,27.51
2022-07-31T10:22:45.143Z,27.44
2022-07-31T10:25:21.792Z,27.41
2022-07-31T10:27:51.478Z,27.27
2022-07-31T10:30:22.739Z,27.16
2022-07-31T10:32:56.075Z,26.91
2022-07-31T10:35:29.645Z,26.76
2022-07-31T10:38:24.181Z,26.54
2022-07-31T10:41:11.266Z,26.48
2022-07-31T10:43:47.188Z,26.38
2022-07-31T10:46:30.512Z,26.39
2022-07-31T10:49:40.572Z,26.38
2022-07-31T10:52:35.752Z,26.27
2022-07-31T10:55:18.008Z,26.27
2022-07-31T10:58:12.164Z,26.31
2022-07-31T11:01:07.949Z,26.33
2022-07-31T11:03:41.005Z,26.30
2022-07-31T11:06:40.488Z,26.30
2022-07-31T11:09:30.823Z,26.34
2022-07-31T11:12:19.672Z,26.35
2022-07-31T11:14:58.348Z,26.39
2022-07-31T11:18:17.444Z,26.43
2022-07-31T11:20:47.030Z,26.46
2022-07-31T11:23:16.929Z,26.48
2022-07-31T11:25:47.780Z,26.48
2022-07-31T11:28:19.070Z,26.45
2022-07-31T11:30:52.353Z,26.45
2022-07-31T11:33:41.603Z,26.45
2022-07-31T11:36:13.948Z,26.44
2022-07-31T11:38:44.760Z,26.45
2022-07-31T11:41:17.413Z,26.46
2022-07-31T11:43:52.671Z,26.51
2022-07-31T11:46:26.428Z,26.54
2022-07-31T11:48:55.836Z,26.53
2022-07-31T11:51:25.148Z,26.52
2022-07-31T11:53:56.763Z,26.52
2022-07-31T11:56:29.577Z,26.50
2022-07-31T11:58:59.248Z,26.49
2022-07-31T12:01:29.779Z,26.50
2022-07-31T12:04:07.572Z,26.49
2022-07-31T12:06:39.433Z,26.47
2022-07-31T12:09:08.139Z,26.42
2022-07-31T12:11:58.657Z,26.41
2022-07-31T12:14:34.294Z,26.46
2022-07-31T12:17:05.204Z,26.47
2022-07-31T12:19:37.418Z,26.50
2022-07-31T12:22:14.705Z,26.49
2022-07-31T12:24:43.455Z,26.52
2022-07-31T12:27:18.539Z,26.60
2022-07-31T12:29:47.143Z,26.54
2022-07-31T12:32:25.968Z,26.65
2022-07-31T12:35:04.048Z,26.69
2022-07-31T12:37:32.801Z,26.63
2022-07-31T12:40:01.761Z,26.65
2022-07-31T12:42:41.221Z,26.64
2022-07-31T12:45:19.763Z,26.62
2022-07-31T12:47:51.771Z,26.63
2022-07-31T12:50:20.997Z,26.57
2022-07-31T12:52:49.919Z,26.54
2022-07-31T12:55:18.695Z,26.49
2022-07-31T12:57:50.903Z,26.42
2022-07-31T13:00:23.126Z,26.36
2022-07-31T13:02:52.315Z,26.31
2022-07-31T13:05:21.230Z,26.25
2022-07-31T13:07:50.412Z,26.26
2022-07-31T13:10:23.762Z,26.29
2022-07-31T13:12:55.029Z,26.33
2022-07-31T13:15:30.122Z,26.36
2022-07-31T13:17:59.642Z,26.37
2022-07-31T13:20:28.096Z,26.31
2022-07-31T13:22:58.473Z,26.30
2022-07-31T13:25:27.197Z,26.27
2022-07-31T13:27:57.179Z,26.31
2022-07-31T13:30:25.774Z,26.33
2022-07-31T13:32:54.190Z,26.36
2022-07-31T13:35:28.365Z,26.36
2022-07-31T13:37:57.793Z,26.37
2022-07-31T13:40:40.529Z,26.37
2022-07-31T13:43:10.388Z,26.38
2022-07-31T13:45:38.968Z,26.39
2022-07-31T13:48:10.214Z,26.39
2022-07-31T13:50:39.912Z,26.38
2022-07-31T13:53:08.900Z,26.36
2022-07-31T13:55:37.416Z,26.33
2022-07-31T13:58:05.954Z,26.30
2022-07-31T14:00:35.896Z,26.25
2022-07-31T14:03:04.408Z,26.16
2022-07-31T14:05:40.219Z,26.18
2022-07-31T14:08:29.771Z,26.18
2022-07-31T14:10:57.596Z,26.16
2022-07-31T14:13:26.404Z,26.18
2022-07-31T14:15:56.355Z,26.17
2022-07-31T14:18:25.241Z,26.15
2022-07-31T14:20:53.693Z,26.15
2022-07-31T14:23:35.211Z,26.17
2022-07-31T14:26:05.293Z,26.16
2022-07-31T14:28:33.905Z,26.16
2022-07-31T14:31:04.181Z,26.17
2022-07-31T14:33:32.816Z,26.16
2022-07-31T14:36:03.847Z,26.15
2022-07-31T14:38:32.308Z,26.12
2022-07-31T14:41:00.829Z,26.12
2022-07-31T14:43:29.297Z,26.10
2022-07-31T14:45:57.868Z,26.07
2022-07-31T14:48:28.422Z,26.07
2022-07-31T14:50:56.907Z,26.07
2022-07-31T14:53:25.401Z,26.05
2022-07-31T14:55:53.801Z,26.06
2022-07-31T14:58:32.270Z,26.03
2022-07-31T15:01:03.546Z,26.01
2022-07-31T15:03:33.647Z,26.00
2022-07-31T15:06:51.180Z,25.99
2022-07-31T15:08:50.703Z,25.96
2022-07-31T15:11:19.238Z,25.94
2022-07-31T15:13:47.876Z,25.93
2022-07-31T15:16:16.359Z,25.91
2022-07-31T15:18:49.979Z,25.88
2022-07-31T15:21:20.072Z,25.87
2022-07-31T15:23:48.492Z,25.84
2022-07-31T15:26:17.121Z,25.84
2022-07-31T15:28:46.181Z,25.81
2022-07-31T15:31:14.657Z,25.79
2022-07-31T15:33:46.397Z,25.77
2022-07-31T15:36:15.419Z,25.75
2022-07-31T15:38:43.966Z,25.74
2022-07-31T15:41:12.510Z,25.71
2022-07-31T15:43:47.675Z,25.69
2022-07-31T15:46:16.144Z,25.70
2022-07-31T15:48:46.125Z,25.68
2022-07-31T15:51:14.788Z,25.67
2022-07-31T15:53:43.378Z,25.65
2022-07-31T15:56:11.856Z,25.63
2022-07-31T15:58:40.450Z,25.62
2022-07-31T16:01:09.111Z,25.59
2022-07-31T16:03:50.722Z,25.54
2022-07-31T16:06:27.980Z,25.50
2022-07-31T16:09:00.659Z,25.47
2022-07-31T16:12:03.946Z,25.44
2022-07-31T16:14:17.814Z,25.42
2022-07-31T16:16:46.336Z,25.32
2022-07-31T16:19:15.256Z,25.28
2022-07-31T16:22:27.879Z,25.23
2022-07-31T16:24:57.728Z,25.24
2022-07-31T16:27:26.280Z,25.22
2022-07-31T16:29:59.896Z,25.21
2022-07-31T16:32:32.632Z,25.19
2022-07-31T16:35:01.836Z,25.19
2022-07-31T16:37:52.377Z,25.18
2022-07-31T16:40:29.919Z,25.16
2022-07-31T16:43:46.760Z,25.17
2022-07-31T16:45:50.820Z,25.16
2022-07-31T16:48:19.554Z,25.16
2022-07-31T16:50:53.315Z,25.15
2022-07-31T16:54:11.727Z,25.14
2022-07-31T16:56:14.045Z,25.08
2022-07-31T16:58:43.980Z,25.11
2022-07-31T17:01:59.144Z,25.10
2022-07-31T17:04:04.357Z,25.05
2022-07-31T17:06:36.821Z,25.05
2022-07-31T17:09:17.171Z,25.00
2022-07-31T17:11:50.087Z,25.04
2022-07-31T17:14:20.292Z,25.03
2022-07-31T17:16:50.904Z,25.01
2022-07-31T17:19:41.541Z,25.00
2022-07-31T17:22:11.382Z,24.96
2022-07-31T17:24:40.648Z,24.98
2022-07-31T17:27:10.913Z,24.98
2022-07-31T17:29:39.970Z,24.94
2022-07-31T17:32:11.185Z,24.92
2022-07-31T17:34:40.582Z,24.91
2022-07-31T17:37:09.704Z,24.88
2022-07-31T17:39:38.537Z,24.88
2022-07-31T17:42:09.322Z,24.83
2022-07-31T17:44:40.067Z,24.81
2022-07-31T17:47:09.312Z,24.81
2022-07-31T17:49:38.292Z,24.82
2022-07-31T17:52:07.402Z,24.79
2022-07-31T17:54:35.846Z,24.78
2022-07-31T17:57:05.192Z,24.78
2022-07-31T17:59:34.360Z,24.78
2022-07-31T18:02:04.949Z,24.77
2022-07-31T18:04:37.052Z,24.74
2022-07-31T18:07:07.340Z,24.65
2022-07-31T18:09:36.746Z,24.65
2022-07-31T18:12:06.246Z,24.63
2022-07-31T18:14:34.930Z,24.58
2022-07-31T18:17:04.896Z,24.52
2022-07-31T18:19:33.362Z,24.50
2022-07-31T18:22:02.011Z,24.52
2022-07-31T18:24:30.801Z,24.47
2022-07-31T18:26:59.479Z,24.48
2022-07-31T18:29:28.343Z,24.46
2022-07-31T18:31:56.891Z,24.44
2022-07-31T18:34:26.795Z,24.45
2022-07-31T18:36:55.381Z,24.37
2022-07-31T18:39:24.473Z,24.36
2022-07-31T18:41:52.974Z,24.35
2022-07-31T18:44:22.262Z,24.34
2022-07-31T18:46:51.169Z,24.33
2022-07-31T18:51:01.468Z,24.32
2022-07-31T18:52:10.905Z,24.28
2022-07-31T18:54:40.132Z,24.25
2022-07-31T18:57:09.504Z,24.24
2022-07-31T18:59:38.003Z,24.23
2022-07-31T19:02:08.588Z,24.22
2022-07-31T19:04:40.901Z,24.17
2022-07-31T19:07:10.753Z,24.16
2022-07-31T19:09:39.442Z,24.14
2022-07-31T19:12:08.986Z,24.12
2022-07-31T19:14:37.705Z,24.11
2022-07-31T19:17:08.398Z,24.08
2022-07-31T19:19:40.228Z,24.05
2022-07-31T19:22:25.193Z,24.01
2022-07-31T19:24:54.112Z,23.99
2022-07-31T19:27:22.584Z,23.95
2022-07-31T19:30:13.919Z,23.92
2022-07-31T19:32:42.707Z,23.89
2022-07-31T19:35:11.759Z,23.86
2022-07-31T19:37:41.684Z,23.85
2022-07-31T19:40:11.611Z,23.83
2022-07-31T19:42:40.753Z,23.80
2022-07-31T19:45:09.975Z,23.76
2022-07-31T19:47:38.449Z,23.72
2022-07-31T19:50:07.742Z,23.70
2022-07-31T19:52:36.235Z,23.68
2022-07-31T19:55:07.787Z,23.65
2022-07-31T19:57:36.661Z,23.62
2022-07-31T20:00:06.804Z,23.59
2022-07-31T20:02:35.376Z,23.59
2022-07-31T20:05:03.786Z,23.54
2022-07-31T20:07:33.127Z,23.50
2022-07-31T20:10:02.368Z,23.47
2022-07-31T20:12:33.322Z,23.46
2022-07-31T20:15:01.818Z,23.43
2022-07-31T20:17:32.378Z,23.40
2022-07-31T20:20:04.705Z,23.37
2022-07-31T20:22:44.513Z,23.34
2022-07-31T20:25:20.019Z,23.32
2022-07-31T20:27:51.115Z,23.30
2022-07-31T20:30:22.230Z,23.28
2022-07-31T20:32:51.726Z,23.26
2022-07-31T20:35:29.312Z,23.24
2022-07-31T20:38:15.719Z,23.20
2022-07-31T20:40:53.305Z,23.17
2022-07-31T20:43:27.204Z,23.15
2022-07-31T20:45:58.009Z,23.11
2022-07-31T20:48:31.610Z,23.08
2022-07-31T20:51:00.340Z,23.03
2022-07-31T20:53:30.177Z,23.01
2022-07-31T20:55:59.668Z,22.98
2022-07-31T20:58:29.577Z,22.95
2022-07-31T21:00:58.103Z,22.93
2022-07-31T21:03:26.779Z,22.91
2022-07-31T21:05:55.286Z,22.89
2022-07-31T21:08:23.798Z,22.87
2022-07-31T21:10:52.540Z,22.85
2022-07-31T21:13:20.955Z,22.83
2022-07-31T21:15:51.574Z,22.81
2022-07-31T21:18:22.060Z,22.80
2022-07-31T21:20:53.785Z,22.77
2022-07-31T21:23:23.862Z,22.74
2022-07-31T21:25:52.745Z,22.72
2022-07-31T21:28:21.789Z,22.69
2022-07-31T21:30:53.825Z,22.67
2022-07-31T21:33:23.731Z,22.64
2022-07-31T21:35:52.537Z,22.60
2022-07-31T21:38:21.639Z,22.59
2022-07-31T21:40:50.915Z,22.57
2022-07-31T21:43:22.574Z,22.54
2022-07-31T21:45:57.618Z,22.50
2022-07-31T21:48:31.497Z,22.44
2022-07-31T21:51:00.871Z,22.42
2022-07-31T21:53:29.383Z,22.37
2022-07-31T21:56:02.184Z,22.34
2022-07-31T21:58:30.699Z,22.33
2022-07-31T22:01:00.650Z,22.32
2022-07-31T22:03:29.273Z,22.29
2022-07-31T22:06:15.308Z,22.27
2022-07-31T22:08:44.092Z,22.22
2022-07-31T22:11:12.567Z,22.18
2022-07-31T22:13:41.132Z,22.15
2022-07-31T22:16:11.231Z,22.12
2022-07-31T22:18:40.180Z,22.08
2022-07-31T22:21:09.972Z,21.99
2022-07-31T22:23:38.982Z,21.91
2022-07-31T22:26:07.959Z,21.89
2022-07-31T22:28:37.120Z,21.87
2022-07-31T22:31:05.956Z,21.82
2022-07-31T22:33:36.029Z,21.80
2022-07-31T22:36:07.233Z,21.79
2022-07-31T22:38:38.130Z,21.75
2022-07-31T22:41:06.938Z,21.73
2022-07-31T22:44:13.792Z,21.71
2022-07-31T22:46:24.316Z,21.68
2022-07-31T22:48:55.589Z,21.69
2022-07-31T22:51:24.421Z,21.66
2022-07-31T22:53:52.967Z,21.65
2022-07-31T22:56:21.411Z,21.64
2022-07-31T22:58:49.859Z,21.63
2022-07-31T23:01:18.275Z,21.62
2022-07-31T23:03:46.881Z,21.61
2022-07-31T23:06:31.762Z,21.61
2022-07-31T23:09:02.687Z,21.59
2022-07-31T23:11:31.241Z,21.57
2022-07-31T23:14:00.128Z,21.57
2022-07-31T23:16:28.684Z,21.55
2022-07-31T23:18:57.781Z,21.55
2022-07-31T23:21:27.714Z,21.51
2022-07-31T23:23:56.340Z,21.48
2022-07-31T23:26:26.633Z,21.47
2022-07-31T23:28:56.620Z,21.42
2022-07-31T23:31:25.575Z,21.40
2022-07-31T23:33:54.669Z,21.34
2022-07-31T23:36:23.183Z,21.31
2022-07-31T23:38:53.092Z,21.26
2022-07-31T23:41:35.369Z,21.15
2022-07-31T23:44:05.120Z,21.15
2022-07-31T23:46:33.602Z,21.16
2022-07-31T23:49:02.878Z,21.14
2022-07-31T23:51:31.390Z,21.14
2022-07-31T23:54:01.238Z,21.14
2022-07-31T23:56:29.653Z,21.15
2022-07-31T23:58:58.073Z,21.14
